Time;durP1;ratioP1;P1;durP2;ratioP2;P2;SDS_P1;SDS_P2;PMS_P1;PMS_P2;Temp;Humidity;BMP_temperature;BMP_pressure;BME280_temperature;BME280_humidity;BME280_pressure;Samples;Min_cycle;Max_cycle;Signal;HPM_P1;HPM_P2
2023/08/09 00:00:31;;;;;;;3.17;0.80;;;;;;;12.71;75.08;101186.00;7401813;19;19926;-75
2023/08/09 00:03:00;;;;;;;2.50;0.90;;;;;;;12.68;75.45;101185.53;7401489;19;19917;-76
2023/08/09 00:05:29;;;;;;;3.10;0.82;;;;;;;12.68;75.05;101183.66;7401694;19;19919;-75
2023/08/09 00:07:58;;;;;;;2.80;0.80;;;;;;;12.66;75.80;101184.88;7402202;19;19923;-75
2023/08/09 00:10:26;;;;;;;2.70;0.90;;;;;;;12.62;75.66;101183.56;7401928;19;19925;-76
2023/08/09 00:12:55;;;;;;;5.70;1.20;;;;;;;12.61;75.47;101182.72;7400258;19;19943;-76
2023/08/09 00:15:27;;;;;;;3.60;0.82;;;;;;;12.56;76.12;101185.13;7402018;19;20355;-75
2023/08/09 00:17:55;;;;;;;3.20;0.93;;;;;;;12.52;75.87;101174.84;7402098;19;19914;-75
2023/08/09 00:20:24;;;;;;;4.75;1.13;;;;;;;12.46;76.68;101181.84;7402202;19;19922;-76
2023/08/09 00:22:53;;;;;;;2.53;0.88;;;;;;;12.45;76.70;101182.88;7402390;19;19920;-75
2023/08/09 00:25:22;;;;;;;4.40;1.20;;;;;;;12.43;76.70;101182.19;7404238;19;19946;-76
2023/08/09 00:27:50;;;;;;;5.88;1.05;;;;;;;12.43;76.69;101184.88;7403047;19;19935;-76
2023/08/09 00:30:20;;;;;;;3.42;0.95;;;;;;;12.42;76.45;101188.63;7402643;19;20320;-75
2023/08/09 00:32:51;;;;;;;2.47;1.02;;;;;;;12.41;76.40;101184.25;7402033;19;20594;-75
2023/08/09 00:35:19;;;;;;;5.38;1.00;;;;;;;12.40;76.35;101196.06;7402371;19;19933;-76
2023/08/09 00:37:48;;;;;;;4.70;1.35;;;;;;;12.39;76.66;101193.53;7401967;19;19915;-76
2023/08/09 00:40:17;;;;;;;4.15;1.00;;;;;;;12.36;76.58;101189.34;7400136;19;20297;-75
2023/08/09 00:42:45;;;;;;;3.88;0.75;;;;;;;12.34;77.04;101193.28;7402020;19;19947;-75
2023/08/09 00:45:14;;;;;;;5.22;2.15;;;;;;;12.30;77.29;101200.88;7401741;19;19927;-75
2023/08/09 00:47:43;;;;;;;7.70;1.00;;;;;;;12.30;77.22;101202.75;7402538;19;19935;-75
2023/08/09 00:50:14;;;;;;;5.60;0.93;;;;;;;12.26;77.69;101196.84;7401159;19;20265;-76
2023/08/09 00:52:43;;;;;;;5.15;1.08;;;;;;;12.26;77.27;101191.44;7400758;19;19930;-76
2023/08/09 00:55:13;;;;;;;1.65;1.10;;;;;;;12.23;77.77;101200.75;7401664;19;19922;-75
2023/08/09 00:57:42;;;;;;;2.75;1.25;;;;;;;12.22;77.60;101193.66;7400982;19;19918;-76
2023/08/09 01:00:12;;;;;;;1.70;1.33;;;;;;;12.20;77.59;101198.44;7401527;19;19947;-76
2023/08/09 01:02:41;;;;;;;3.67;1.00;;;;;;;12.18;77.32;101208.56;7401356;19;19958;-76
2023/08/09 01:05:11;;;;;;;5.35;1.20;;;;;;;12.17;77.56;101208.72;7406934;19;19915;-76
2023/08/09 01:07:50;;;;;;;3.53;1.00;;;;;;;12.14;78.68;101201.00;7406902;19;20392;-75
2023/08/09 01:10:24;;;;;;;3.70;1.13;;;;;;;12.14;77.96;101201.00;7406695;19;19922;-75
2023/08/09 01:12:57;;;;;;;4.65;1.20;;;;;;;12.13;78.04;101204.69;7405253;19;19914;-75
2023/08/09 01:15:27;;;;;;;4.57;0.90;;;;;;;12.11;77.85;101212.16;7406485;19;19915;-75
2023/08/09 01:17:58;;;;;;;3.47;1.08;;;;;;;12.07;77.83;101200.88;7406323;19;19923;-76
2023/08/09 01:20:27;;;;;;;2.58;0.73;;;;;;;12.05;78.00;101202.91;7406747;19;19914;-75
2023/08/09 01:23:04;;;;;;;3.25;1.00;;;;;;;12.01;78.92;101209.69;7406934;19;19919;-75
2023/08/09 01:25:35;;;;;;;6.00;1.20;;;;;;;12.05;78.00;101213.69;7406647;19;20286;-75
2023/08/09 01:28:05;;;;;;;2.67;0.85;;;;;;;12.06;78.61;101209.16;7406677;19;20336;-75
2023/08/09 01:30:34;;;;;;;3.70;1.05;;;;;;;12.07;77.83;101214.38;7406302;19;20264;-75
2023/08/09 01:33:02;;;;;;;5.15;1.02;;;;;;;12.02;78.04;101218.63;7404495;19;19918;-75
2023/08/09 01:35:36;;;;;;;4.13;0.90;;;;;;;11.99;78.38;101216.28;7403737;19;20367;-75
2023/08/09 01:38:10;;;;;;;3.35;1.27;;;;;;;11.94;78.62;101214.13;7405898;19;20319;-75
2023/08/09 01:40:42;;;;;;;2.60;0.80;;;;;;;11.91;78.28;101217.16;7403149;19;19997;-76
2023/08/09 01:43:11;;;;;;;2.25;1.00;;;;;;;11.90;78.42;101220.06;7405410;19;19935;-75
2023/08/09 01:45:40;;;;;;;2.20;0.90;;;;;;;11.90;78.49;101222.75;7405912;19;19938;-76
2023/08/09 01:48:09;;;;;;;7.95;1.55;;;;;;;11.87;78.42;101218.53;7407645;19;20352;-75
2023/08/09 01:50:39;;;;;;;2.53;0.90;;;;;;;11.83;78.70;101225.28;7405581;19;19922;-75
2023/08/09 01:53:08;;;;;;;2.65;1.00;;;;;;;11.79;78.78;101230.22;7404308;19;19938;-76
2023/08/09 01:55:38;;;;;;;3.30;1.10;;;;;;;11.77;78.87;101234.13;7405200;19;20368;-76
2023/08/09 01:58:09;;;;;;;5.40;1.10;;;;;;;11.76;78.84;101232.44;7404469;19;20245;-75
2023/08/09 02:00:38;;;;;;;3.40;1.00;;;;;;;11.75;78.94;101236.13;7404696;19;19940;-75
2023/08/09 02:03:07;;;;;;;5.38;1.25;;;;;;;11.73;78.81;101239.03;7404490;19;19937;-76
2023/08/09 02:05:38;;;;;;;2.03;0.73;;;;;;;11.71;78.91;101235.63;7404475;19;19945;-76
2023/08/09 02:08:07;;;;;;;3.28;0.90;;;;;;;11.72;78.75;101239.19;7404508;19;19922;-76
2023/08/09 02:10:36;;;;;;;3.42;0.90;;;;;;;11.70;78.96;101233.94;7404641;19;19914;-76
2023/08/09 02:13:05;;;;;;;6.72;1.20;;;;;;;11.70;78.79;101238.47;7403214;19;19910;-76
2023/08/09 02:15:37;;;;;;;1.75;1.33;;;;;;;11.67;78.65;101239.69;7402262;19;19931;-76
2023/08/09 02:18:07;;;;;;;5.38;0.80;;;;;;;11.68;78.73;101251.31;7404319;19;19939;-75
2023/08/09 02:20:35;;;;;;;3.83;1.42;;;;;;;11.66;79.08;101245.25;7404371;19;19910;-76
2023/08/09 02:23:05;;;;;;;3.97;0.98;;;;;;;11.66;78.80;101247.94;7404447;19;20355;-75
2023/08/09 02:25:33;;;;;;;2.80;1.10;;;;;;;11.65;78.89;101249.81;7404320;19;19925;-76
2023/08/09 02:28:02;;;;;;;4.20;1.00;;;;;;;11.65;78.93;101255.19;7404312;19;19934;-76
2023/08/09 02:30:32;;;;;;;2.33;0.80;;;;;;;11.64;78.88;101252.69;7404119;19;19945;-76
2023/08/09 02:33:03;;;;;;;2.08;0.85;;;;;;;11.63;78.87;101253.72;7401661;19;19919;-76
2023/08/09 02:35:35;;;;;;;1.50;0.70;;;;;;;11.61;79.00;101253.03;7402827;19;19946;-75
2023/08/09 02:38:04;;;;;;;8.65;1.00;;;;;;;11.60;79.08;101252.22;7403763;19;19918;-76
2023/08/09 02:40:34;;;;;;;2.83;1.00;;;;;;;11.59;78.80;101261.31;7402076;19;19919;-76
2023/08/09 02:43:03;;;;;;;3.30;1.02;;;;;;;11.57;78.85;101251.69;7404074;19;20405;-76
2023/08/09 02:45:31;;;;;;;2.05;0.80;;;;;;;11.56;78.89;101250.84;7403541;19;20279;-76
2023/08/09 02:48:03;;;;;;;5.70;1.10;;;;;;;11.55;78.97;101257.28;7406247;19;20282;-77
2023/08/09 02:50:31;;;;;;;2.70;1.00;;;;;;;11.51;78.77;101255.94;7403883;19;20351;-76
2023/08/09 02:53:01;;;;;;;1.40;0.70;;;;;;;11.46;78.89;101258.31;7403269;19;19914;-77
2023/08/09 02:55:30;;;;;;;3.55;0.70;;;;;;;11.44;79.04;101254.09;7404334;19;20070;-76
2023/08/09 02:57:58;;;;;;;5.63;1.20;;;;;;;11.39;79.04;101257.31;7403521;19;19935;-76
2023/08/09 03:00:27;;;;;;;2.45;0.75;;;;;;;11.36;79.00;101253.13;7404031;19;20252;-76
2023/08/09 03:02:56;;;;;;;3.20;0.75;;;;;;;11.33;79.42;101260.72;7403097;19;19914;-77
2023/08/09 03:05:28;;;;;;;2.33;1.00;;;;;;;11.31;79.38;101265.44;7403231;19;19926;-77
2023/08/09 03:07:57;;;;;;;1.42;0.75;;;;;;;11.30;79.36;101272.66;7402999;19;19911;-76
2023/08/09 03:10:26;;;;;;;1.92;0.82;;;;;;;11.30;79.48;101259.19;7403127;19;19915;-76
2023/08/09 03:12:55;;;;;;;3.10;1.00;;;;;;;11.31;79.41;101268.13;7402579;19;19946;-76
2023/08/09 03:15:24;;;;;;;1.73;0.98;;;;;;;11.31;79.30;101268.13;7402927;19;20328;-76
2023/08/09 03:17:53;;;;;;;2.60;0.73;;;;;;;11.30;79.21;101266.47;7402501;19;19927;-76
2023/08/09 03:20:22;;;;;;;2.72;0.90;;;;;;;11.30;79.55;101271.84;7403006;19;20476;-77
2023/08/09 03:22:55;;;;;;;1.83;0.80;;;;;;;11.29;79.74;101276.41;7402255;19;19948;-75
2023/08/09 03:25:24;;;;;;;1.80;0.80;;;;;;;11.28;79.22;101269.31;7402839;19;19938;-77
2023/08/09 03:27:52;;;;;;;4.55;1.38;;;;;;;11.26;79.50;101273.22;7402234;19;19919;-76
2023/08/09 03:30:21;;;;;;;1.42;0.90;;;;;;;11.24;79.67;101272.53;7402551;19;19923;-77
2023/08/09 03:32:50;;;;;;;2.90;1.20;;;;;;;11.23;79.48;101273.53;7402222;19;20344;-76
2023/08/09 03:35:19;;;;;;;3.28;1.00;;;;;;;11.20;79.75;101272.03;7402353;19;19915;-77
2023/08/09 03:37:47;;;;;;;5.57;0.98;;;;;;;11.20;79.85;101276.59;7404953;19;19922;-76
2023/08/09 03:40:19;;;;;;;3.28;1.08;;;;;;;11.18;80.11;101284.00;7402861;19;19914;-76
2023/08/09 03:42:47;;;;;;;2.03;0.77;;;;;;;11.18;79.99;101289.38;7404627;19;19915;-76
2023/08/09 03:45:17;;;;;;;3.83;1.20;;;;;;;11.16;80.01;101291.44;7403661;19;19945;-76
2023/08/09 03:47:46;;;;;;;9.30;1.45;;;;;;;11.15;80.16;101297.81;7405458;19;19922;-76
2023/08/09 03:50:14;;;;;;;3.83;1.02;;;;;;;11.13;79.98;101297.97;7403439;19;19919;-77
2023/08/09 03:52:43;;;;;;;3.65;0.90;;;;;;;11.12;80.02;101301.72;7404684;19;19918;-76
2023/08/09 03:55:12;;;;;;;2.38;1.02;;;;;;;11.10;80.19;101305.56;7402689;19;19914;-76
2023/08/09 03:57:43;;;;;;;5.63;0.95;;;;;;;11.10;80.34;101300.19;7401699;19;19939;-76
2023/08/09 04:00:17;;;;;;;1.77;1.00;;;;;;;11.11;80.17;101307.25;7402019;19;19919;-76
2023/08/09 04:02:46;;;;;;;3.72;0.90;;;;;;;11.09;80.24;101312.00;7401597;19;19911;-77
2023/08/09 04:05:19;;;;;;;3.30;1.10;;;;;;;11.08;80.01;101324.63;7401730;19;19918;-76
2023/08/09 04:07:49;;;;;;;5.43;1.02;;;;;;;11.09;80.34;101323.59;7401373;19;20280;-77
2023/08/09 04:10:18;;;;;;;2.60;1.10;;;;;;;11.08;80.39;101321.09;7401914;19;19996;-77
2023/08/09 04:12:50;;;;;;;2.13;0.90;;;;;;;11.08;80.42;101326.50;7401401;19;19922;-76
2023/08/09 04:15:19;;;;;;;2.47;1.42;;;;;;;11.07;80.47;101324.78;7399411;19;19918;-76
2023/08/09 04:17:48;;;;;;;9.18;1.30;;;;;;;11.06;80.40;101323.09;7401434;19;19951;-76
2023/08/09 04:20:19;;;;;;;4.13;1.30;;;;;;;11.07;80.26;101332.88;7401623;19;19918;-76
2023/08/09 04:22:47;;;;;;;3.60;1.30;;;;;;;11.07;80.27;101330.19;7402889;19;19986;-76
2023/08/09 04:25:17;;;;;;;2.92;0.95;;;;;;;11.07;80.09;101335.59;7403568;19;20349;-76
2023/08/09 04:27:49;;;;;;;2.20;1.10;;;;;;;11.06;80.58;101339.28;7402403;19;19936;-75
2023/08/09 04:30:18;;;;;;;6.65;1.17;;;;;;;11.05;80.35;101342.97;7402264;19;19931;-77
2023/08/09 04:32:47;;;;;;;1.35;0.93;;;;;;;11.05;80.14;101348.38;7401597;19;19914;-76
2023/08/09 04:35:15;;;;;;;1.83;1.25;;;;;;;11.06;80.27;101344.66;7400372;19;19931;-76
2023/08/09 04:37:44;;;;;;;4.75;1.30;;;;;;;11.04;80.15;101344.00;7401822;19;19910;-76
2023/08/09 04:40:14;;;;;;;4.13;1.25;;;;;;;11.03;80.55;101348.56;7397801;19;19914;-76
2023/08/09 04:42:43;;;;;;;2.42;1.00;;;;;;;11.02;80.67;101343.31;7400090;19;19918;-76
2023/08/09 04:45:14;;;;;;;2.75;1.10;;;;;;;11.04;80.75;101349.41;7400399;19;19923;-77
2023/08/09 04:47:43;;;;;;;4.25;1.40;;;;;;;11.06;80.77;101358.16;7402613;19;19919;-76
2023/08/09 04:50:12;;;;;;;2.75;1.15;;;;;;;11.07;80.57;101359.84;7399995;19;19911;-76
2023/08/09 04:52:42;;;;;;;2.83;1.52;;;;;;;11.09;80.46;101364.03;7399615;19;19942;-77
2023/08/09 04:55:11;;;;;;;7.32;1.13;;;;;;;11.12;80.53;101355.63;7398758;19;19918;-76
2023/08/09 04:57:40;;;;;;;1.88;1.10;;;;;;;11.16;80.50;101362.38;7400127;19;20840;-77
2023/08/09 05:00:11;;;;;;;1.58;0.95;;;;;;;11.21;80.50;101361.88;7400135;19;20344;-76
2023/08/09 05:02:43;;;;;;;2.08;1.05;;;;;;;11.24;80.56;101370.47;7399700;19;19910;-76
2023/08/09 05:05:12;;;;;;;5.47;2.03;;;;;;;11.28;80.42;101370.97;7400219;19;19931;-77
2023/08/09 05:07:41;;;;;;;1.77;1.05;;;;;;;11.30;80.19;101372.47;7399675;19;19922;-76
2023/08/09 05:10:12;;;;;;;4.53;1.23;;;;;;;11.35;79.99;101371.97;7399293;19;19919;-76
2023/08/09 05:12:40;;;;;;;8.00;1.30;;;;;;;11.39;80.27;101373.31;7399121;19;20288;-76
2023/08/09 05:15:10;;;;;;;2.97;1.52;;;;;;;11.43;80.23;101374.69;7397876;19;19926;-76
2023/08/09 05:17:41;;;;;;;3.20;1.67;;;;;;;11.47;80.35;101377.88;7399065;19;19965;-76
2023/08/09 05:20:11;;;;;;;2.70;1.17;;;;;;;11.50;79.96;101370.28;7399243;19;19918;-76
2023/08/09 05:22:40;;;;;;;3.15;1.02;;;;;;;11.53;80.40;101378.00;7398807;19;19914;-76
2023/08/09 05:25:10;;;;;;;5.18;1.30;;;;;;;11.56;80.15;101385.75;7398981;19;19932;-76
2023/08/09 05:27:38;;;;;;;5.40;1.50;;;;;;;11.60;79.85;101384.44;7398982;19;19922;-77
2023/08/09 05:30:08;;;;;;;3.33;1.38;;;;;;;11.64;79.79;101385.78;7398228;19;19948;-76
2023/08/09 05:32:37;;;;;;;4.47;1.30;;;;;;;11.68;79.66;101388.97;7396864;19;19914;-76
2023/08/09 05:35:09;;;;;;;1.75;1.35;;;;;;;11.72;79.75;101395.75;7396932;19;19925;-76
2023/08/09 05:37:38;;;;;;;5.20;1.40;;;;;;;11.76;79.66;101395.22;7398335;19;19914;-77
2023/08/09 05:40:09;;;;;;;3.03;1.33;;;;;;;11.81;79.38;101392.84;7396899;19;19919;-76
2023/08/09 05:42:38;;;;;;;3.83;1.30;;;;;;;11.87;79.75;101404.81;7398358;19;20344;-76
2023/08/09 05:45:08;;;;;;;6.50;1.90;;;;;;;11.93;79.78;101403.28;7398349;19;20280;-76
2023/08/09 05:47:37;;;;;;;2.83;1.67;;;;;;;11.98;79.71;101406.31;7399782;19;19952;-77
2023/08/09 05:50:10;;;;;;;3.80;1.38;;;;;;;12.03;79.69;101412.88;7399940;19;19914;-76
2023/08/09 05:52:39;;;;;;;3.47;1.40;;;;;;;12.10;79.15;101408.47;7404808;19;20543;-76
2023/08/09 05:55:09;;;;;;;2.20;1.10;;;;;;;12.15;79.57;101413.34;7403063;19;20657;-76
2023/08/09 05:57:38;;;;;;;4.50;1.30;;;;;;;12.21;79.25;101421.59;7405682;19;19914;-76
2023/08/09 06:00:15;;;;;;;5.45;1.35;;;;;;;12.30;78.88;101424.28;7404491;19;19919;-76
2023/08/09 06:02:44;;;;;;;2.10;1.27;;;;;;;12.37;78.98;101418.00;7405610;19;20245;-76
2023/08/09 06:05:25;;;;;;;2.97;0.90;;;;;;;12.43;79.14;101411.88;7404467;19;19923;-76
2023/08/09 06:07:54;;;;;;;9.18;1.33;;;;;;;12.49;78.67;101415.75;7404460;19;19992;-76
2023/08/09 06:10:25;;;;;;;2.78;1.20;;;;;;;12.55;78.45;101432.09;7403985;19;19950;-76
2023/08/09 06:12:54;;;;;;;4.90;1.20;;;;;;;12.62;78.03;101429.53;7403777;19;19925;-76
2023/08/09 06:15:23;;;;;;;3.08;1.20;;;;;;;12.69;78.35;101433.19;7402126;19;20467;-76
2023/08/09 06:17:51;;;;;;;1.75;0.73;;;;;;;12.74;78.22;101428.94;7403696;19;19910;-76
2023/08/09 06:20:27;;;;;;;3.03;0.90;;;;;;;12.82;78.27;101435.31;7404009;19;20388;-76
2023/08/09 06:22:56;;;;;;;2.90;1.20;;;;;;;12.88;77.81;101437.31;7403580;19;19915;-76
2023/08/09 06:25:25;;;;;;;3.03;1.10;;;;;;;12.96;77.95;101445.38;7403959;19;19925;-76
2023/08/09 06:27:54;;;;;;;6.32;1.27;;;;;;;13.05;78.13;101449.72;7403990;19;19922;-76
2023/08/09 06:30:23;;;;;;;4.40;1.23;;;;;;;13.13;78.02;101444.28;7404191;19;20489;-76
2023/08/09 06:32:53;;;;;;;2.55;0.73;;;;;;;13.22;77.35;101432.38;7404073;19;19918;-76
2023/08/09 06:35:24;;;;;;;4.45;1.40;;;;;;;13.33;76.85;101441.97;7402550;19;19919;-76
2023/08/09 06:37:53;;;;;;;1.73;0.60;;;;;;;13.42;76.79;101447.09;7403681;19;20348;-76
2023/08/09 06:40:22;;;;;;;1.73;0.95;;;;;;;13.52;76.41;101444.16;7402128;19;19953;-76
2023/08/09 06:42:51;;;;;;;2.00;0.80;;;;;;;13.63;76.06;101449.97;7403697;19;19925;-76
2023/08/09 06:45:19;;;;;;;1.58;0.77;;;;;;;13.74;75.81;101445.16;7403737;19;19948;-76
2023/08/09 06:47:48;;;;;;;4.85;0.70;;;;;;;13.82;75.71;101456.75;7406516;19;19923;-75
2023/08/09 06:50:16;;;;;;;2.63;0.70;;;;;;;13.91;75.00;101457.50;7403688;19;19932;-75
2023/08/09 06:52:48;;;;;;;2.50;0.70;;;;;;;14.00;74.49;101453.69;7403128;19;19919;-75
2023/08/09 06:55:16;;;;;;;5.25;0.75;;;;;;;14.12;74.17;101454.06;7402405;19;20298;-76
2023/08/09 06:57:45;;;;;;;2.28;0.52;;;;;;;14.22;73.62;101455.50;7403232;19;19919;-75
2023/08/09 07:00:16;;;;;;;2.28;0.70;;;;;;;14.31;73.71;101465.22;7403621;19;19928;-75
2023/08/09 07:02:46;;;;;;;1.80;0.90;;;;;;;14.39;73.45;101458.88;7402742;19;19915;-76
2023/08/09 07:05:18;;;;;;;1.35;0.50;;;;;;;14.50;72.49;101477.38;7405278;19;19962;-77
2023/08/09 07:07:51;;;;;;;2.08;0.57;;;;;;;14.58;72.11;101477.31;7404469;19;19980;-76
2023/08/09 07:10:20;;;;;;;1.60;0.70;;;;;;;14.65;72.37;101475.50;7403847;19;19974;-75
2023/08/09 07:12:50;;;;;;;3.72;1.70;;;;;;;14.72;71.93;101475.56;7404016;19;20278;-75
2023/08/09 07:15:19;;;;;;;3.50;0.70;;;;;;;14.78;71.66;101472.97;7402408;19;19938;-76
2023/08/09 07:17:47;;;;;;;1.80;0.50;;;;;;;14.87;72.11;101476.41;7403454;19;19934;-76
2023/08/09 07:20:16;;;;;;;2.97;0.50;;;;;;;14.92;71.62;101477.53;7402545;19;19926;-75
2023/08/09 07:22:46;;;;;;;2.60;0.57;;;;;;;14.99;71.68;101485.72;7402051;19;19942;-75
2023/08/09 07:25:17;;;;;;;1.35;0.82;;;;;;;15.07;71.36;101491.03;7402119;19;19918;-76
2023/08/09 07:27:49;;;;;;;1.05;0.60;;;;;;;15.15;71.23;101482.78;7402048;19;19938;-75
2023/08/09 07:30:19;;;;;;;8.55;0.80;;;;;;;15.23;70.40;101501.66;7401978;19;19929;-76
2023/08/09 07:32:48;;;;;;;1.45;0.60;;;;;;;15.30;70.31;101486.31;7401823;19;19914;-75
2023/08/09 07:35:18;;;;;;;1.67;0.43;;;;;;;15.38;69.06;101491.59;7400209;19;20375;-76
2023/08/09 07:37:48;;;;;;;2.90;0.70;;;;;;;15.45;69.70;101487.06;7401935;19;20265;-75
2023/08/09 07:40:20;;;;;;;0.95;0.50;;;;;;;15.53;68.50;101486.16;7400425;19;19946;-76
2023/08/09 07:42:48;;;;;;;1.52;0.57;;;;;;;15.59;69.05;101488.06;7403419;19;19910;-75
2023/08/09 07:45:17;;;;;;;0.80;0.60;;;;;;;15.63;68.52;101500.22;7403221;19;19960;-75
2023/08/09 07:47:46;;;;;;;1.40;0.57;;;;;;;15.69;68.99;101494.03;7403833;19;19956;-75
2023/08/09 07:50:14;;;;;;;1.05;0.60;;;;;;;15.76;69.36;101494.06;7401703;19;20280;-75
2023/08/09 07:52:43;;;;;;;4.45;1.02;;;;;;;15.83;68.56;101500.44;7401079;19;19914;-76
2023/08/09 07:55:12;;;;;;;4.10;0.70;;;;;;;15.85;68.76;101501.91;7400909;19;19915;-75
2023/08/09 07:57:43;;;;;;;2.88;0.88;;;;;;;15.91;67.51;101496.72;7401922;19;20292;-75
2023/08/09 08:00:17;;;;;;;3.28;0.70;;;;;;;15.95;67.62;101504.28;7401228;19;19931;-76
2023/08/09 08:02:48;;;;;;;2.17;0.68;;;;;;;16.02;66.86;101507.03;7400935;19;19935;-76
2023/08/09 08:05:17;;;;;;;3.05;1.30;;;;;;;16.12;67.29;101510.25;7402409;19;20352;-76
2023/08/09 08:07:46;;;;;;;2.05;0.57;;;;;;;16.17;67.37;101508.63;7401164;19;19926;-76
2023/08/09 08:10:16;;;;;;;2.08;0.50;;;;;;;16.23;67.21;101521.44;7401000;19;19982;-76
2023/08/09 08:12:50;;;;;;;2.10;0.75;;;;;;;16.30;65.81;101513.34;7400424;19;19918;-76
2023/08/09 08:15:20;;;;;;;3.70;0.60;;;;;;;16.40;64.79;101529.28;7398163;19;20348;-76
2023/08/09 08:17:51;;;;;;;4.07;0.50;;;;;;;16.52;64.76;101516.81;7400469;19;19914;-76
2023/08/09 08:20:21;;;;;;;0.68;0.68;;;;;;;16.49;62.25;101518.03;7400487;19;19918;-76
2023/08/09 08:22:51;;;;;;;1.73;0.60;;;;;;;16.52;63.60;101514.09;7400437;19;20263;-76
2023/08/09 08:25:21;;;;;;;3.83;0.60;;;;;;;16.60;63.64;101546.59;7400461;19;19946;-76
2023/08/09 08:27:53;;;;;;;1.00;0.63;;;;;;;16.67;62.76;101537.44;7400211;19;19985;-76
2023/08/09 08:30:22;;;;;;;0.82;0.50;;;;;;;16.76;61.97;101521.78;7400615;19;20064;-76
2023/08/09 08:32:52;;;;;;;1.85;0.63;;;;;;;16.86;61.98;101535.03;7400167;19;19918;-76
2023/08/09 08:35:24;;;;;;;1.48;0.43;;;;;;;16.94;62.60;101530.25;7398999;19;20399;-76
2023/08/09 08:37:54;;;;;;;3.28;0.70;;;;;;;17.01;61.26;101543.88;7400305;19;19925;-76
2023/08/09 08:40:23;;;;;;;1.05;0.52;;;;;;;17.05;62.27;101537.84;7398740;19;19990;-76
2023/08/09 08:42:54;;;;;;;2.15;0.70;;;;;;;17.14;60.76;101542.06;7399851;19;19910;-76
2023/08/09 08:45:23;;;;;;;3.78;0.50;;;;;;;17.24;60.10;101553.41;7400282;19;19923;-76
2023/08/09 08:47:52;;;;;;;2.28;0.70;;;;;;;17.39;60.18;101553.25;7400065;19;19945;-76
2023/08/09 08:50:25;;;;;;;0.80;0.40;;;;;;;17.50;59.02;101552.66;7400539;19;20480;-75
2023/08/09 08:52:55;;;;;;;2.88;0.60;;;;;;;17.57;58.55;101548.06;7399654;19;20269;-75
2023/08/09 08:55:25;;;;;;;7.25;0.80;;;;;;;17.71;58.29;101556.28;7399012;19;20406;-76
2023/08/09 08:57:56;;;;;;;2.45;0.85;;;;;;;17.79;57.93;101550.63;7399327;19;20097;-75
2023/08/09 09:00:25;;;;;;;1.33;0.65;;;;;;;17.72;59.05;101566.16;7399090;19;19915;-75
2023/08/09 09:02:54;;;;;;;1.75;0.73;;;;;;;17.61;58.07;101562.13;7399189;19;20281;-75
2023/08/09 09:05:23;;;;;;;1.73;0.57;;;;;;;17.62;58.20;101567.38;7398923;19;19918;-76
2023/08/09 09:07:56;;;;;;;1.55;0.55;;;;;;;17.64;57.38;101561.75;7399351;19;19919;-76
2023/08/09 09:10:25;;;;;;;1.85;0.50;;;;;;;17.77;58.41;101556.31;7399301;19;19919;-75
2023/08/09 09:12:58;;;;;;;2.50;0.50;;;;;;;17.95;56.26;101564.69;7399212;19;19923;-75
2023/08/09 09:15:30;;;;;;;1.15;0.40;;;;;;;18.03;56.73;101567.22;7398306;19;19926;-76
2023/08/09 09:17:59;;;;;;;1.95;0.40;;;;;;;18.01;55.76;101565.75;7398796;19;20336;-76
2023/08/09 09:20:29;;;;;;;0.68;0.55;;;;;;;18.11;55.40;101572.50;7398577;19;19930;-76
2023/08/09 09:22:59;;;;;;;1.58;0.60;;;;;;;18.04;55.65;101568.06;7398420;19;20360;-76
2023/08/09 09:25:28;;;;;;;2.35;0.52;;;;;;;17.97;56.55;101565.34;7401605;19;19914;-76
2023/08/09 09:27:59;;;;;;;2.10;0.55;;;;;;;17.90;54.25;101567.22;7405446;19;19941;-76
2023/08/09 09:30:31;;;;;;;5.20;0.88;;;;;;;17.89;55.16;101565.56;7404751;19;20626;-76
2023/08/09 09:33:02;;;;;;;1.02;0.50;;;;;;;18.03;55.74;101567.22;7405417;19;19938;-75
2023/08/09 09:35:33;;;;;;;1.60;0.60;;;;;;;18.20;55.61;101564.09;7402868;19;19923;-76
2023/08/09 09:38:03;;;;;;;1.98;0.50;;;;;;;18.36;55.03;101567.22;7405082;19;19919;-76
2023/08/09 09:40:33;;;;;;;0.65;0.40;;;;;;;18.57;54.55;101568.91;7402530;19;19942;-76
2023/08/09 09:43:07;;;;;;;2.17;0.70;;;;;;;18.52;52.78;101566.81;7405088;19;19942;-76
2023/08/09 09:45:36;;;;;;;2.10;0.63;;;;;;;18.39;54.29;101566.81;7405859;19;19918;-75
2023/08/09 09:48:06;;;;;;;1.10;0.50;;;;;;;18.47;53.72;101568.47;7404280;19;19910;-76
2023/08/09 09:50:35;;;;;;;2.50;0.73;;;;;;;18.58;53.99;101570.59;7404264;19;19923;-76
2023/08/09 09:53:05;;;;;;;5.32;0.73;;;;;;;18.74;53.38;101572.88;7404127;19;19919;-76
2023/08/09 09:55:34;;;;;;;2.13;0.70;;;;;;;18.89;51.68;101564.44;7403226;19;19919;-76
2023/08/09 09:58:06;;;;;;;1.00;0.50;;;;;;;19.04;51.04;101573.19;7404038;19;19922;-75
2023/08/09 10:00:36;;;;;;;2.05;1.25;;;;;;;19.12;51.60;101572.94;7403847;19;19923;-75
2023/08/09 10:03:06;;;;;;;2.05;0.90;;;;;;;19.15;52.22;101571.69;7404041;19;20340;-76
2023/08/09 10:05:38;;;;;;;4.13;0.65;;;;;;;18.99;52.70;101581.19;7403693;19;19933;-76
2023/08/09 10:08:09;;;;;;;8.85;1.02;;;;;;;19.14;53.87;101583.69;7403833;19;19918;-76
2023/08/09 10:10:40;;;;;;;1.95;0.60;;;;;;;19.27;51.51;101586.34;7403701;19;20356;-75
2023/08/09 10:13:13;;;;;;;5.22;1.67;;;;;;;19.32;52.13;101578.34;7403866;19;19919;-76
2023/08/09 10:15:46;;;;;;;1.00;0.60;;;;;;;19.37;52.67;101570.34;7402751;19;19919;-76
2023/08/09 10:18:20;;;;;;;0.63;0.45;;;;;;;19.33;51.86;101574.53;7403879;19;19926;-76
2023/08/09 10:20:52;;;;;;;1.70;0.60;;;;;;;19.11;51.90;101576.75;7403870;19;19978;-76
2023/08/09 10:23:22;;;;;;;3.63;0.63;;;;;;;18.84;51.88;101584.19;7404740;19;19914;-75
2023/08/09 10:25:52;;;;;;;2.50;0.80;;;;;;;18.64;53.61;101585.28;7403823;19;19938;-75
2023/08/09 10:28:49;;;;;;;3.80;1.25;;;;;;;18.55;53.32;101590.94;7404543;19;19929;-76
2023/08/09 10:31:51;;;;;;;1.40;0.60;;;;;;;18.76;53.66;101587.16;7404226;19;20274;-76
2023/08/09 10:34:21;;;;;;;1.95;0.40;;;;;;;19.06;53.18;101587.50;7402876;19;20027;-75
2023/08/09 10:36:55;;;;;;;2.63;0.88;;;;;;;19.31;51.31;101593.91;7399390;19;19930;-76
2023/08/09 10:39:25;;;;;;;2.33;0.70;;;;;;;19.51;52.28;101595.72;7402099;19;19941;-75
2023/08/09 10:41:58;;;;;;;1.23;0.43;;;;;;;19.44;49.97;101590.31;7402711;19;19918;-75
2023/08/09 10:44:48;;;;;;;3.05;0.93;;;;;;;19.25;48.63;101586.56;7402858;19;19923;-75
2023/08/09 10:47:23;;;;;;;0.82;0.60;;;;;;;19.19;51.68;101581.97;7406990;19;19911;-76
2023/08/09 10:50:10;;;;;;;2.22;1.00;;;;;;;19.02;52.50;101592.56;7402540;19;19918;-76
2023/08/09 10:52:42;;;;;;;2.83;0.90;;;;;;;18.96;52.91;101593.41;7402384;19;20249;-75
2023/08/09 10:55:31;;;;;;;2.50;0.55;;;;;;;18.81;51.34;101608.34;7402954;19;19915;-76
2023/08/09 10:58:01;;;;;;;;;;;;;;;19.06;49.84;101598.41;7405106;19;19919;-76
2023/08/09 11:00:41;;;;;;;3.92;0.70;;;;;;;19.52;50.54;101606.44;7402538;19;20282;-76
2023/08/09 11:03:11;;;;;;;1.63;0.90;;;;;;;19.98;50.38;101595.22;7402343;19;19925;-77
2023/08/09 11:05:40;;;;;;;0.93;0.55;;;;;;;20.13;49.37;101592.19;7402940;19;19960;-76
2023/08/09 11:08:16;;;;;;;1.13;0.60;;;;;;;19.98;49.49;101608.06;7402700;19;19938;-75
2023/08/09 11:10:44;;;;;;;1.80;0.63;;;;;;;19.84;50.43;101597.22;7401882;19;20303;-75
2023/08/09 11:13:15;;;;;;;2.72;0.73;;;;;;;19.78;50.72;101602.72;7401750;19;20281;-75
2023/08/09 11:15:48;;;;;;;2.13;0.57;;;;;;;19.73;50.62;101610.75;7401171;19;20595;-75
2023/08/09 11:18:17;;;;;;;0.90;0.50;;;;;;;19.63;51.19;101613.13;7401594;19;19919;-75
2023/08/09 11:20:47;;;;;;;1.48;0.65;;;;;;;19.52;50.56;101617.38;7401548;19;19946;-75
2023/08/09 11:23:15;;;;;;;3.17;1.25;;;;;;;19.54;51.19;101604.34;7401313;19;19931;-75
2023/08/09 11:25:44;;;;;;;2.70;0.52;;;;;;;19.66;48.46;101621.72;7401575;19;19923;-76
2023/08/09 11:28:15;;;;;;;5.20;0.80;;;;;;;19.63;48.71;101630.34;7401712;19;19915;-75
2023/08/09 11:30:54;;;;;;;3.90;0.68;;;;;;;19.45;48.66;101632.97;7401473;19;19926;-75
2023/08/09 11:33:23;;;;;;;2.95;1.27;;;;;;;19.38;50.40;101632.97;7401460;19;19918;-75
2023/08/09 11:35:52;;;;;;;1.63;0.75;;;;;;;19.36;50.55;101642.44;7397879;19;19918;-75
2023/08/09 11:38:20;;;;;;;2.35;0.70;;;;;;;19.44;50.19;101643.06;7401065;19;19938;-75